createdAt,value
2023-08-29T00:04:50.231Z,16.18
2023-08-29T00:09:53.975Z,16.25
2023-08-29T00:14:57.595Z,16.26
2023-08-29T00:19:59.511Z,16.27
2023-08-29T00:25:01.315Z,16.28
2023-08-29T00:30:03.232Z,16.29
2023-08-29T00:35:05.355Z,16.30
2023-08-29T00:40:08.456Z,16.34
2023-08-29T00:45:10.969Z,16.37
2023-08-29T00:50:12.833Z,16.42
2023-08-29T00:55:16.199Z,16.48
2023-08-29T01:00:18.059Z,16.47
2023-08-29T01:05:21.851Z,16.48
2023-08-29T01:10:35.275Z,16.43
2023-08-29T01:15:37.962Z,16.39
2023-08-29T01:20:41.471Z,16.36
2023-08-29T01:26:14.759Z,16.34
2023-08-29T01:31:18.567Z,16.32
2023-08-29T01:36:23.195Z,16.31
2023-08-29T01:41:25.044Z,16.32
2023-08-29T01:46:26.912Z,16.33
2023-08-29T01:51:29.234Z,16.34
2023-08-29T01:56:32.608Z,16.33
2023-08-29T02:01:34.732Z,16.31
2023-08-29T02:06:36.593Z,16.27
2023-08-29T02:11:39.613Z,16.25
2023-08-29T02:16:41.862Z,16.21
2023-08-29T02:21:49.923Z,16.19
2023-08-29T02:26:51.824Z,16.19
2023-08-29T02:31:53.735Z,16.17
2023-08-29T02:36:55.592Z,16.10
2023-08-29T02:41:57.407Z,16.12
2023-08-29T02:47:02.104Z,16.11
2023-08-29T02:52:04.242Z,16.14
2023-08-29T02:57:06.113Z,16.14
2023-08-29T03:02:07.944Z,16.12
2023-08-29T03:07:09.764Z,16.08
2023-08-29T03:12:11.774Z,16.09
2023-08-29T03:17:13.725Z,16.07
2023-08-29T03:22:15.842Z,16.11
2023-08-29T03:27:17.718Z,16.08
2023-08-29T03:32:19.652Z,16.11
2023-08-29T03:37:22.056Z,16.09
2023-08-29T03:42:23.970Z,16.09
2023-08-29T03:47:25.980Z,16.13
2023-08-29T03:52:28.533Z,16.16
2023-08-29T03:57:31.778Z,16.10
2023-08-29T04:02:33.985Z,16.09
2023-08-29T04:07:35.816Z,16.06
2023-08-29T04:12:37.849Z,16.06
2023-08-29T04:17:40.583Z,16.03
2023-08-29T04:22:42.578Z,15.98
2023-08-29T04:27:45.338Z,15.95
2023-08-29T04:32:49.614Z,15.93
2023-08-29T04:37:51.577Z,15.87
2023-08-29T04:42:53.688Z,15.86
2023-08-29T04:47:55.794Z,15.83
2023-08-29T04:52:58.583Z,15.79
2023-08-29T04:58:01.266Z,15.82
2023-08-29T05:03:05.664Z,15.82
2023-08-29T05:08:08.013Z,15.81
2023-08-29T05:13:11.440Z,15.87
2023-08-29T05:18:14.821Z,15.92
2023-08-29T05:23:16.877Z,15.93
2023-08-29T05:28:18.794Z,15.95
2023-08-29T05:33:20.632Z,15.97
2023-08-29T05:38:26.718Z,16.00
2023-08-29T05:43:28.593Z,16.02
2023-08-29T05:48:30.504Z,16.05
2023-08-29T05:53:32.343Z,16.02
2023-08-29T05:58:34.220Z,16.00
2023-08-29T06:03:37.590Z,15.97
2023-08-29T06:08:41.499Z,15.92
2023-08-29T06:13:43.528Z,15.88
2023-08-29T06:18:45.349Z,15.84
2023-08-29T06:23:47.230Z,15.83
2023-08-29T06:28:49.130Z,15.78
2023-08-29T06:33:51.056Z,15.77
2023-08-29T06:38:52.900Z,15.79
2023-08-29T06:43:54.673Z,15.84
2023-08-29T06:48:56.514Z,15.85
2023-08-29T06:53:58.919Z,15.86
2023-08-29T06:59:01.052Z,15.88
2023-08-29T07:04:02.897Z,15.90
2023-08-29T07:09:05.278Z,15.93
2023-08-29T07:14:07.179Z,15.92
2023-08-29T07:19:08.963Z,16.00
2023-08-29T07:24:11.575Z,16.08
2023-08-29T07:29:14.474Z,16.18
2023-08-29T07:34:17.282Z,16.28
2023-08-29T07:39:20.331Z,16.36
2023-08-29T07:44:22.179Z,16.41
2023-08-29T07:49:24.040Z,16.42
2023-08-29T07:54:25.892Z,16.39
2023-08-29T07:59:27.887Z,16.37
2023-08-29T08:04:29.857Z,16.34
2023-08-29T08:09:31.725Z,16.31
2023-08-29T08:14:33.870Z,16.36
2023-08-29T08:19:35.786Z,16.35
2023-08-29T08:24:37.654Z,16.32
2023-08-29T08:29:39.443Z,16.37
2023-08-29T08:34:41.335Z,16.42
2023-08-29T08:39:43.206Z,16.43
2023-08-29T08:44:45.216Z,16.40
2023-08-29T08:49:47.344Z,16.39
2023-08-29T08:54:49.201Z,16.49
2023-08-29T08:59:51.073Z,16.55
2023-08-29T09:04:54.713Z,16.61
2023-08-29T09:10:11.139Z,16.58
2023-08-29T09:15:13.500Z,16.55
2023-08-29T09:20:15.544Z,16.56
2023-08-29T09:25:17.482Z,16.56
2023-08-29T09:30:20.602Z,16.65
2023-08-29T09:35:26.328Z,16.65
2023-08-29T09:40:39.745Z,16.65
2023-08-29T09:45:43.193Z,16.73
2023-08-29T09:50:46.816Z,16.79
2023-08-29T09:56:09.301Z,16.78
2023-08-29T10:01:13.613Z,16.75
2023-08-29T10:06:19.148Z,16.69
2023-08-29T10:11:21.490Z,16.70
2023-08-29T10:16:24.668Z,16.71
2023-08-29T10:21:29.251Z,16.68
2023-08-29T10:26:32.460Z,16.66
2023-08-29T10:31:35.515Z,16.67
2023-08-29T10:36:40.602Z,16.71
2023-08-29T10:41:50.063Z,16.76
2023-08-29T10:46:53.383Z,16.80
2023-08-29T10:52:11.216Z,16.88
2023-08-29T10:57:32.242Z,16.97
2023-08-29T11:02:34.271Z,17.03
2023-08-29T11:07:36.278Z,17.07
2023-08-29T11:12:38.326Z,17.15
2023-08-29T11:17:40.349Z,17.20
2023-08-29T11:22:49.114Z,17.21
2023-08-29T11:27:50.951Z,17.20
2023-08-29T11:32:53.330Z,17.22
2023-08-29T11:37:55.517Z,17.28
2023-08-29T11:43:21.589Z,17.29
2023-08-29T11:48:25.046Z,17.26
2023-08-29T11:53:33.557Z,17.20
2023-08-29T11:58:36.654Z,17.17
2023-08-29T12:03:39.886Z,17.15
2023-08-29T12:08:44.168Z,17.19
2023-08-29T12:14:01.154Z,17.16
2023-08-29T12:19:15.008Z,17.14
2023-08-29T12:24:16.894Z,17.08
2023-08-29T12:29:19.923Z,16.98
2023-08-29T12:34:21.718Z,16.99
2023-08-29T12:39:23.511Z,17.08
2023-08-29T12:44:25.311Z,17.12
2023-08-29T12:49:27.322Z,17.19
2023-08-29T12:54:31.639Z,17.25
2023-08-29T12:59:33.452Z,17.27
2023-08-29T13:04:35.364Z,17.31
2023-08-29T13:09:39.414Z,17.36
2023-08-29T13:14:41.270Z,17.39
2023-08-29T13:19:43.369Z,17.38
2023-08-29T13:24:45.158Z,17.33
2023-08-29T13:29:46.956Z,17.34
2023-08-29T13:34:48.754Z,17.36
2023-08-29T13:39:57.436Z,17.39
2023-08-29T13:44:59.704Z,17.49
2023-08-29T13:50:01.674Z,17.54
2023-08-29T13:55:04.294Z,17.50
2023-08-29T14:00:07.021Z,17.45
2023-08-29T14:05:15.130Z,17.57
2023-08-29T14:10:17.982Z,17.71
2023-08-29T14:15:20.963Z,17.83
2023-08-29T14:20:22.804Z,17.93
2023-08-29T14:25:24.718Z,17.99
2023-08-29T14:30:26.715Z,17.95
2023-08-29T14:35:29.074Z,18.02
2023-08-29T14:40:30.962Z,18.09
2023-08-29T14:45:33.952Z,18.13
2023-08-29T14:50:36.164Z,18.15
2023-08-29T14:55:38.004Z,18.17
2023-08-29T15:00:42.430Z,18.18
2023-08-29T15:05:44.320Z,18.22
2023-08-29T15:10:46.239Z,18.17
2023-08-29T15:15:48.567Z,18.15
2023-08-29T15:20:50.394Z,18.18
2023-08-29T15:25:52.858Z,18.20
2023-08-29T15:30:54.677Z,18.20
2023-08-29T15:35:57.018Z,18.17
2023-08-29T15:40:59.236Z,18.10
2023-08-29T15:46:01.163Z,17.99
2023-08-29T15:51:03.057Z,17.94
2023-08-29T15:56:06.292Z,17.90
2023-08-29T16:01:08.889Z,17.84
2023-08-29T16:06:10.841Z,17.81
2023-08-29T16:11:13.644Z,17.85
2023-08-29T16:16:15.495Z,17.86
2023-08-29T16:21:17.902Z,17.91
2023-08-29T16:26:22.708Z,17.93
2023-08-29T16:31:24.589Z,17.93
2023-08-29T16:36:26.403Z,17.89
2023-08-29T16:41:28.217Z,17.82
2023-08-29T16:46:30.170Z,17.79
2023-08-29T16:51:32.145Z,17.83
2023-08-29T16:56:33.966Z,17.83
2023-08-29T17:01:35.913Z,17.82
2023-08-29T17:06:37.808Z,17.80
2023-08-29T17:11:39.809Z,17.80
2023-08-29T17:16:41.725Z,17.80
2023-08-29T17:21:43.558Z,17.76
2023-08-29T17:26:45.437Z,17.69
2023-08-29T17:31:47.348Z,17.71
2023-08-29T17:36:49.582Z,17.75
2023-08-29T17:41:51.465Z,17.76
2023-08-29T17:46:53.595Z,17.73
2023-08-29T17:51:55.431Z,17.76
2023-08-29T17:56:57.237Z,17.79
2023-08-29T18:01:59.101Z,17.85
2023-08-29T18:07:01.070Z,17.88
2023-08-29T18:12:02.974Z,17.81
2023-08-29T18:17:04.886Z,17.71
2023-08-29T18:22:06.749Z,17.68
2023-08-29T18:27:09.852Z,17.60
2023-08-29T18:32:11.804Z,17.42
2023-08-29T18:37:13.687Z,17.28
2023-08-29T18:42:15.677Z,17.34
2023-08-29T18:47:17.535Z,17.38
2023-08-29T18:52:19.492Z,17.36
2023-08-29T18:57:21.321Z,17.16
2023-08-29T19:02:23.250Z,16.97
2023-08-29T19:07:25.181Z,16.94
2023-08-29T19:12:27.025Z,16.87
2023-08-29T19:17:29.270Z,16.76
2023-08-29T19:22:31.297Z,16.86
2023-08-29T19:27:33.136Z,16.88
2023-08-29T19:32:35.385Z,16.93
2023-08-29T19:37:37.353Z,16.94
2023-08-29T19:42:39.346Z,16.96
2023-08-29T19:47:42.917Z,16.99
2023-08-29T19:52:48.268Z,17.01
2023-08-29T19:57:50.692Z,17.00
2023-08-29T20:02:52.547Z,17.02
2023-08-29T20:07:55.791Z,16.88
2023-08-29T20:12:59.736Z,16.87
2023-08-29T20:18:01.599Z,16.92
2023-08-29T20:23:04.622Z,16.85
2023-08-29T20:28:09.119Z,16.77
2023-08-29T20:33:11.385Z,16.71
2023-08-29T20:38:15.885Z,16.64
2023-08-29T20:43:18.549Z,16.68
2023-08-29T20:48:20.701Z,16.58
2023-08-29T20:53:22.587Z,16.57
2023-08-29T20:58:25.751Z,16.55
2023-08-29T21:03:34.113Z,16.57
2023-08-29T21:08:36.473Z,16.63
2023-08-29T21:13:41.112Z,16.55
2023-08-29T21:18:43.173Z,16.58
2023-08-29T21:23:46.796Z,16.59
2023-08-29T21:28:50.101Z,16.66
2023-08-29T21:33:51.963Z,16.68
2023-08-29T21:38:53.782Z,16.63
2023-08-29T21:43:55.851Z,16.67
2023-08-29T21:48:57.662Z,16.69
2023-08-29T21:53:59.547Z,16.68
2023-08-29T21:59:01.371Z,16.61
2023-08-29T22:04:03.249Z,16.56
2023-08-29T22:09:05.093Z,16.51
2023-08-29T22:14:06.936Z,16.47
2023-08-29T22:19:09.006Z,16.41
2023-08-29T22:24:11.282Z,16.37
2023-08-29T22:29:13.185Z,16.36
2023-08-29T22:34:15.011Z,16.37
2023-08-29T22:39:17.004Z,16.37
2023-08-29T22:44:18.893Z,16.42
2023-08-29T22:49:22.641Z,16.52
2023-08-29T22:54:25.241Z,16.63
2023-08-29T22:59:28.010Z,16.67
2023-08-29T23:04:29.958Z,16.63
2023-08-29T23:09:35.570Z,16.58
2023-08-29T23:14:37.382Z,16.56
2023-08-29T23:19:39.227Z,16.59
2023-08-29T23:24:41.056Z,16.51
2023-08-29T23:29:43.730Z,16.51
2023-08-29T23:34:46.401Z,16.43
2023-08-29T23:39:48.790Z,16.42
2023-08-29T23:44:50.740Z,16.39
2023-08-29T23:49:52.622Z,16.35
2023-08-29T23:54:54.436Z,16.32
2023-08-29T23:59:56.237Z,16.31
